Time,TemperatureF,DewpointF,PressureIn,WindDirection,WindDirectionDegrees,WindSpeedMPH,WindSpeedGustMPH,Humidity,HourlyPrecipIn,Conditions,Clouds,dailyrainin,SoftwareType,DateUTC
2013-10-07 00:00:00,53.6,52.5,30.14,North,0,0.0,0.0,96,0.01,,,0.00,WUHU216HW,2013-10-07 04:00:00,
2013-10-07 00:01:00,53.6,52.5,30.14,North,0,0.0,0.0,96,0.01,,,0.00,WUHU216HW,2013-10-07 04:01:00,
2013-10-07 00:02:00,53.6,52.5,30.14,North,0,0.0,0.0,96,0.01,,,0.00,WUHU216HW,2013-10-07 04:02:00,
2013-10-07 00:07:00,53.6,52.5,30.13,North,0,0.0,0.0,96,0.01,,,0.00,WUHU216HW,2013-10-07 04:07:00,
2013-10-07 00:12:00,53.6,52.5,30.13,North,0,0.0,0.0,96,0.02,,,0.01,WUHU216HW,2013-10-07 04:12:00,
2013-10-07 00:17:00,53.5,52.3,30.13,North,0,0.0,0.0,96,0.02,,,0.01,WUHU216HW,2013-10-07 04:17:00,
2013-10-07 00:22:00,53.5,52.3,30.13,North,0,0.0,0.0,96,0.02,,,0.01,WUHU216HW,2013-10-07 04:22:00,
2013-10-07 00:27:00,53.5,52.3,30.13,North,0,0.0,0.0,96,0.01,,,0.01,WUHU216HW,2013-10-07 04:27:00,
2013-10-07 00:32:00,53.5,52.3,30.13,North,0,0.0,0.0,96,0.01,,,0.01,WUHU216HW,2013-10-07 04:32:00,
2013-10-07 00:36:00,53.3,52.1,30.13,North,0,0.0,0.0,96,0.01,,,0.01,WUHU216HW,2013-10-07 04:36:00,
2013-10-07 00:41:00,53.5,52.3,30.13,North,0,0.0,0.0,96,0.01,,,0.01,WUHU216HW,2013-10-07 04:41:00,
2013-10-07 00:46:00,53.6,52.5,30.13,North,0,0.0,0.0,96,0.01,,,0.01,WUHU216HW,2013-10-07 04:46:00,
2013-10-07 00:51:00,53.6,52.5,30.12,North,0,0.0,0.0,96,0.01,,,0.01,WUHU216HW,2013-10-07 04:51:00,
2013-10-07 11:51:00,62.6,61.7,29.94,North,0,0.0,0.0,97,0.00,,,0.01,WUHU216HW,2013-10-07 15:51:00,
2013-10-07 11:56:00,63.2,62.3,29.94,North,0,0.0,0.0,97,0.00,,,0.03,WUHU216HW,2013-10-07 15:56:00,
2013-10-07 12:01:00,63.9,63.0,29.94,North,0,0.0,0.0,97,0.00,,,0.03,WUHU216HW,2013-10-07 16:01:00,
2013-10-07 12:06:00,64.4,63.5,29.93,North,0,0.0,0.0,97,0.00,,,0.03,WUHU216HW,2013-10-07 16:06:00,
2013-10-07 12:11:00,65.2,64.0,29.93,North,0,0.0,0.0,96,0.00,,,0.03,WUHU216HW,2013-10-07 16:11:00,
2013-10-07 12:16:00,65.5,64.4,29.92,North,0,0.0,0.0,96,0.00,,,0.03,WUHU216HW,2013-10-07 16:16:00,
2013-10-07 12:21:00,65.7,64.5,29.92,North,0,0.0,0.0,96,0.00,,,0.03,WUHU216HW,2013-10-07 16:21:00,
2013-10-07 12:26:00,65.9,64.7,29.92,North,0,0.0,0.0,96,0.00,,,0.03,WUHU216HW,2013-10-07 16:26:00,
2013-10-07 12:31:00,66.1,64.5,29.91,North,0,0.0,0.0,95,0.00,,,0.03,WUHU216HW,2013-10-07 16:31:00,
2013-10-07 12:36:00,66.8,65.5,29.91,North,0,0.0,0.0,96,0.00,,,0.03,WUHU216HW,2013-10-07 16:36:00,
2013-10-07 12:41:00,67.5,66.2,29.91,North,0,0.0,0.0,96,0.00,,,0.03,WUHU216HW,2013-10-07 16:41:00,
2013-10-07 12:46:00,68.4,66.9,29.91,North,0,0.0,0.0,95,0.00,,,0.03,WUHU216HW,2013-10-07 16:46:00,
2013-10-07 12:51:00,69.7,68.1,29.91,North,0,0.0,0.0,95,0.00,,,0.03,WUHU216HW,2013-10-07 16:51:00,
2013-10-07 12:56:00,70.6,69.0,29.90,North,0,0.0,0.0,95,0.00,,,0.03,WUHU216HW,2013-10-07 16:56:00,
2013-10-07 13:01:00,71.5,69.7,29.89,North,0,0.0,0.0,94,0.00,,,0.03,WUHU216HW,2013-10-07 17:01:00,
2013-10-07 13:06:00,72.4,70.6,29.89,North,0,0.0,0.0,94,0.00,,,0.03,WUHU216HW,2013-10-07 17:06:00,
2013-10-07 13:11:00,73.1,70.9,29.88,North,0,0.0,0.0,93,0.00,,,0.03,WUHU216HW,2013-10-07 17:11:00,
2013-10-07 13:16:00,73.1,70.3,29.88,North,0,0.0,0.0,91,0.00,,,0.03,WUHU216HW,2013-10-07 17:16:00,
2013-10-07 13:21:00,73.1,70.0,29.87,North,0,0.0,0.0,90,0.01,,,0.04,WUHU216HW,2013-10-07 17:21:00,
2013-10-07 13:26:00,73.4,70.0,29.87,North,0,0.0,0.0,89,0.01,,,0.04,WUHU216HW,2013-10-07 17:26:00,
2013-10-07 13:31:00,73.4,70.0,29.86,North,0,0.0,0.0,89,0.01,,,0.04,WUHU216HW,2013-10-07 17:31:00,
2013-10-07 13:36:00,73.4,70.0,29.86,North,0,0.0,0.0,89,0.01,,,0.04,WUHU216HW,2013-10-07 17:36:00,
2013-10-07 13:41:00,73.1,69.0,29.86,North,0,0.0,0.0,87,0.01,,,0.04,WUHU216HW,2013-10-07 17:41:00,
2013-10-07 13:46:00,73.1,69.3,29.86,North,0,0.0,0.0,88,0.01,,,0.04,WUHU216HW,2013-10-07 17:46:00,
2013-10-07 13:51:00,73.4,70.0,29.85,North,0,0.0,0.0,89,0.01,,,0.04,WUHU216HW,2013-10-07 17:51:00,
2013-10-07 13:56:00,73.6,69.6,29.85,North,0,0.0,0.0,87,0.01,,,0.04,WUHU216HW,2013-10-07 17:56:00,
2013-10-07 14:01:00,74.0,69.6,29.85,North,0,0.0,0.0,86,0.01,,,0.04,WUHU216HW,2013-10-07 18:01:00,
2013-10-07 14:06:00,74.2,68.7,29.84,North,0,0.0,0.0,83,0.01,,,0.04,WUHU216HW,2013-10-07 18:06:00,
2013-10-07 14:11:00,74.2,68.7,29.84,North,0,0.0,0.0,83,0.01,,,0.04,WUHU216HW,2013-10-07 18:11:00,
2013-10-07 14:16:00,74.2,68.4,29.83,North,0,0.0,0.0,82,0.00,,,0.04,WUHU216HW,2013-10-07 18:16:00,
2013-10-07 14:21:00,74.3,68.2,29.83,North,0,0.0,0.0,81,0.00,,,0.04,WUHU216HW,2013-10-07 18:21:00,
2013-10-07 14:26:00,74.5,69.0,29.83,North,0,0.0,0.0,83,0.00,,,0.04,WUHU216HW,2013-10-07 18:26:00,
2013-10-07 14:31:00,74.5,68.4,29.83,North,0,0.0,0.0,81,0.00,,,0.04,WUHU216HW,2013-10-07 18:31:00,
2013-10-07 14:36:00,74.2,67.7,29.83,North,0,0.0,0.0,80,0.00,,,0.04,WUHU216HW,2013-10-07 18:36:00,
2013-10-07 14:41:00,74.0,67.5,29.83,North,0,0.0,0.0,80,0.00,,,0.04,WUHU216HW,2013-10-07 18:41:00,
2013-10-07 14:46:00,74.3,67.9,29.83,North,0,0.0,0.0,80,0.00,,,0.04,WUHU216HW,2013-10-07 18:46:00,
2013-10-07 14:51:00,74.3,67.5,29.83,North,0,0.0,0.0,79,0.00,,,0.04,WUHU216HW,2013-10-07 18:51:00,
2013-10-07 14:56:00,74.2,67.3,29.82,North,0,0.0,0.0,79,0.00,,,0.04,WUHU216HW,2013-10-07 18:56:00,
2013-10-07 15:01:00,74.2,67.3,29.82,North,0,0.0,0.0,79,0.00,,,0.04,WUHU216HW,2013-10-07 19:01:00,
2013-10-07 15:06:00,74.0,67.2,29.82,North,0,0.0,0.0,79,0.00,,,0.04,WUHU216HW,2013-10-07 19:06:00,
2013-10-07 15:11:00,73.8,67.3,29.82,North,0,0.0,0.0,80,0.00,,,0.04,WUHU216HW,2013-10-07 19:11:00,
2013-10-07 15:16:00,73.6,67.5,29.82,North,0,0.0,0.0,81,0.00,,,0.04,WUHU216HW,2013-10-07 19:16:00,
2013-10-07 15:21:00,73.4,67.3,29.82,North,0,0.0,0.0,81,0.00,,,0.04,WUHU216HW,2013-10-07 19:21:00,
2013-10-07 15:26:00,73.4,67.3,29.82,North,0,0.0,0.0,81,0.00,,,0.04,WUHU216HW,2013-10-07 19:26:00,
2013-10-07 15:31:00,73.3,67.5,29.82,North,0,0.0,0.0,82,0.00,,,0.04,WUHU216HW,2013-10-07 19:31:00,
2013-10-07 15:36:00,73.1,67.6,29.82,North,0,0.0,0.0,83,0.08,,,0.13,WUHU216HW,2013-10-07 19:36:00,
2013-10-07 15:41:00,72.7,67.2,29.82,North,0,0.0,0.0,83,0.08,,,0.13,WUHU216HW,2013-10-07 19:41:00,
2013-10-07 15:46:00,72.4,67.2,29.82,North,0,0.0,0.0,84,0.08,,,0.13,WUHU216HW,2013-10-07 19:46:00,
2013-10-07 15:51:00,72.4,67.6,29.82,North,0,0.0,0.0,85,0.08,,,0.13,WUHU216HW,2013-10-07 19:51:00,
2013-10-07 15:56:00,72.0,67.2,29.82,North,0,0.0,0.0,85,0.08,,,0.13,WUHU216HW,2013-10-07 19:56:00,
2013-10-07 16:01:00,71.6,67.2,29.81,North,0,0.0,0.0,86,0.08,,,0.13,WUHU216HW,2013-10-07 20:01:00,
2013-10-07 16:06:00,71.6,67.2,29.81,North,0,0.0,0.0,86,0.08,,,0.13,WUHU216HW,2013-10-07 20:06:00,
2013-10-07 16:11:00,71.6,67.2,29.81,North,0,0.0,0.0,86,0.08,,,0.13,WUHU216HW,2013-10-07 20:11:00,
2013-10-07 16:16:00,71.6,67.2,29.81,North,0,0.0,0.0,86,0.08,,,0.13,WUHU216HW,2013-10-07 20:16:00,
2013-10-07 16:21:00,72.0,67.6,29.81,North,0,0.0,0.0,86,0.08,,,0.13,WUHU216HW,2013-10-07 20:21:00,
2013-10-07 16:26:00,72.0,67.6,29.81,North,0,0.0,0.0,86,0.08,,,0.13,WUHU216HW,2013-10-07 20:26:00,
2013-10-07 16:31:00,72.2,67.4,29.81,North,0,0.0,0.0,85,0.08,,,0.13,WUHU216HW,2013-10-07 20:31:00,
2013-10-07 16:36:00,72.2,67.4,29.81,North,0,0.0,0.0,85,0.00,,,0.13,WUHU216HW,2013-10-07 20:36:00,
2013-10-07 16:41:00,72.2,67.1,29.80,North,0,0.0,0.0,84,0.00,,,0.13,WUHU216HW,2013-10-07 20:41:00,
2013-10-07 16:46:00,72.0,66.9,29.80,North,0,0.0,0.0,84,0.00,,,0.13,WUHU216HW,2013-10-07 20:46:00,
2013-10-07 16:51:00,72.0,66.9,29.80,North,0,0.0,0.0,84,0.00,,,0.13,WUHU216HW,2013-10-07 20:51:00,
2013-10-07 16:56:00,72.0,66.9,29.80,North,0,0.0,0.0,84,0.00,,,0.13,WUHU216HW,2013-10-07 20:56:00,
2013-10-07 17:01:00,72.0,66.9,29.79,North,0,0.0,0.0,84,0.00,,,0.13,WUHU216HW,2013-10-07 21:01:00,
2013-10-07 17:06:00,72.0,66.9,29.79,North,0,0.0,0.0,84,0.00,,,0.13,WUHU216HW,2013-10-07 21:06:00,
2013-10-07 17:11:00,72.0,66.9,29.80,North,0,0.0,0.0,84,0.00,,,0.13,WUHU216HW,2013-10-07 21:11:00,
2013-10-07 17:16:00,72.0,66.5,29.80,North,0,0.0,0.0,83,0.00,,,0.13,WUHU216HW,2013-10-07 21:16:00,
2013-10-07 17:21:00,72.0,66.5,29.80,North,0,0.0,0.0,83,0.00,,,0.13,WUHU216HW,2013-10-07 21:21:00,
2013-10-07 17:26:00,71.8,66.7,29.80,North,0,0.0,0.0,84,0.00,,,0.13,WUHU216HW,2013-10-07 21:26:00,
2013-10-07 17:31:00,71.5,66.3,29.80,North,0,0.0,0.0,84,0.00,,,0.13,WUHU216HW,2013-10-07 21:31:00,
2013-10-07 17:36:00,71.1,66.3,29.81,North,0,0.0,0.0,85,0.00,,,0.13,WUHU216HW,2013-10-07 21:36:00,
2013-10-07 17:41:00,70.9,66.5,29.80,North,0,0.0,0.0,86,0.00,,,0.13,WUHU216HW,2013-10-07 21:41:00,
2013-10-07 17:46:00,70.9,66.5,29.81,North,0,0.0,0.0,86,0.00,,,0.13,WUHU216HW,2013-10-07 21:46:00,
2013-10-07 17:51:00,70.7,66.3,29.80,North,0,0.0,0.0,86,0.00,,,0.13,WUHU216HW,2013-10-07 21:51:00,
2013-10-07 17:56:00,70.6,66.5,29.80,North,0,0.0,0.0,87,0.00,,,0.13,WUHU216HW,2013-10-07 21:56:00,
2013-10-07 18:01:00,70.4,66.6,29.80,North,0,0.0,0.0,88,0.00,,,0.13,WUHU216HW,2013-10-07 22:01:00,
2013-10-07 18:06:00,70.0,66.2,29.80,North,0,0.0,0.0,88,0.00,,,0.13,WUHU216HW,2013-10-07 22:06:00,
2013-10-07 18:11:00,69.8,66.1,29.80,North,0,0.0,0.0,88,0.00,,,0.13,WUHU216HW,2013-10-07 22:11:00,
2013-10-07 18:16:00,69.7,66.2,29.80,North,0,0.0,0.0,89,0.00,,,0.13,WUHU216HW,2013-10-07 22:16:00,
2013-10-07 18:21:00,69.5,66.4,29.80,North,0,0.0,0.0,90,0.00,,,0.13,WUHU216HW,2013-10-07 22:21:00,
2013-10-07 18:26:00,69.7,66.6,29.80,North,0,0.0,0.0,90,0.00,,,0.13,WUHU216HW,2013-10-07 22:26:00,
2013-10-07 18:31:00,69.7,66.2,29.81,North,0,0.0,0.0,89,0.00,,,0.13,WUHU216HW,2013-10-07 22:31:00,
2013-10-07 18:36:00,69.8,66.4,29.81,North,0,0.0,0.0,89,0.00,,,0.13,WUHU216HW,2013-10-07 22:36:00,
2013-10-07 18:41:00,69.7,66.2,29.81,North,0,0.0,0.0,89,0.00,,,0.13,WUHU216HW,2013-10-07 22:41:00,
2013-10-07 18:46:00,69.5,66.1,29.81,North,0,0.0,0.0,89,0.00,,,0.13,WUHU216HW,2013-10-07 22:46:00,
2013-10-07 18:51:00,69.5,66.1,29.80,North,0,0.0,0.0,89,0.00,,,0.13,WUHU216HW,2013-10-07 22:51:00,
2013-10-07 18:56:00,69.5,66.1,29.82,North,0,0.0,0.0,89,0.00,,,0.13,WUHU216HW,2013-10-07 22:56:00,
2013-10-07 19:01:00,69.3,66.2,29.84,North,0,0.0,0.0,90,0.00,,,0.13,WUHU216HW,2013-10-07 23:01:00,
2013-10-07 19:06:00,68.4,65.6,29.83,North,0,0.0,0.0,91,0.00,,,0.13,WUHU216HW,2013-10-07 23:06:00,
2013-10-07 19:11:00,67.5,64.7,29.83,North,0,0.0,0.0,91,0.00,,,0.13,WUHU216HW,2013-10-07 23:11:00,
2013-10-07 19:16:00,67.0,64.2,29.82,North,0,0.0,0.0,91,0.00,,,0.13,WUHU216HW,2013-10-07 23:16:00,
2013-10-07 19:21:00,66.6,64.2,29.82,North,0,0.0,0.0,92,0.00,,,0.13,WUHU216HW,2013-10-07 23:21:00,
2013-10-07 19:26:00,66.4,64.3,29.82,North,0,0.0,0.0,93,0.00,,,0.13,WUHU216HW,2013-10-07 23:26:00,
2013-10-07 19:31:00,66.2,63.8,29.82,North,0,0.0,0.0,92,0.01,,,0.13,WUHU216HW,2013-10-07 23:31:00,
2013-10-07 19:36:00,66.1,63.6,29.83,North,0,0.0,0.0,92,0.01,,,0.13,WUHU216HW,2013-10-07 23:36:00,
2013-10-07 19:41:00,66.1,63.6,29.84,North,0,0.0,0.0,92,0.01,,,0.13,WUHU216HW,2013-10-07 23:41:00,
2013-10-07 19:46:00,65.9,63.7,29.84,North,0,0.0,0.0,93,0.01,,,0.13,WUHU216HW,2013-10-07 23:46:00,
2013-10-07 19:51:00,65.9,63.5,29.83,North,0,0.0,0.0,92,0.01,,,0.13,WUHU216HW,2013-10-07 23:51:00,
2013-10-07 19:56:00,65.5,63.5,29.83,North,0,0.0,0.0,93,0.01,,,0.13,WUHU216HW,2013-10-07 23:56:00,
2013-10-07 20:01:00,65.5,63.5,29.83,North,0,0.0,0.0,93,0.01,,,0.13,WUHU216HW,2013-10-08 00:01:00,
2013-10-07 20:06:00,65.3,63.3,29.84,North,0,0.0,0.0,93,0.01,,,0.13,WUHU216HW,2013-10-08 00:06:00,
2013-10-07 20:11:00,65.3,63.3,29.83,North,0,0.0,0.0,93,0.01,,,0.13,WUHU216HW,2013-10-08 00:11:00,
2013-10-07 20:16:00,65.2,63.1,29.83,North,0,0.0,0.0,93,0.01,,,0.13,WUHU216HW,2013-10-08 00:16:00,
2013-10-07 20:21:00,65.2,63.1,29.83,North,0,0.0,0.0,93,0.01,,,0.13,WUHU216HW,2013-10-08 00:21:00,
2013-10-07 20:26:00,65.2,63.1,29.83,North,0,0.0,0.0,93,0.01,,,0.13,WUHU216HW,2013-10-08 00:26:00,
2013-10-07 20:31:00,65.2,63.1,29.83,North,0,0.0,0.0,93,0.00,,,0.13,WUHU216HW,2013-10-08 00:31:00,
2013-10-07 20:36:00,65.2,63.1,29.83,North,0,0.0,0.0,93,0.00,,,0.13,WUHU216HW,2013-10-08 00:36:00,
2013-10-07 20:41:00,65.2,63.1,29.83,North,0,0.0,0.0,93,0.00,,,0.13,WUHU216HW,2013-10-08 00:41:00,
2013-10-07 20:46:00,65.2,63.1,29.84,North,0,0.0,0.0,93,0.00,,,0.13,WUHU216HW,2013-10-08 00:46:00,
2013-10-07 20:51:00,65.2,63.4,29.87,North,0,0.0,0.0,94,0.00,,,0.13,WUHU216HW,2013-10-08 00:51:00,
2013-10-07 20:56:00,64.3,61.9,29.86,North,0,0.0,0.0,92,0.01,,,0.15,WUHU216HW,2013-10-08 00:56:00,
2013-10-07 21:01:00,63.0,60.4,29.87,North,0,0.0,0.0,91,0.01,,,0.15,WUHU216HW,2013-10-08 01:01:00,
2013-10-07 21:06:00,61.6,58.7,29.87,North,0,0.0,0.0,90,0.01,,,0.15,WUHU216HW,2013-10-08 01:06:00,
2013-10-07 21:11:00,60.7,57.8,29.87,North,0,0.0,0.0,90,0.01,,,0.15,WUHU216HW,2013-10-08 01:11:00,
2013-10-07 21:16:00,60.1,57.5,29.88,North,0,0.0,0.0,91,0.01,,,0.15,WUHU216HW,2013-10-08 01:16:00,
2013-10-07 21:21:00,59.8,57.4,29.88,North,0,0.0,0.0,92,0.01,,,0.15,WUHU216HW,2013-10-08 01:21:00,
2013-10-07 21:26:00,59.4,57.1,29.88,North,0,0.0,0.0,92,0.01,,,0.15,WUHU216HW,2013-10-08 01:26:00,
2013-10-07 21:31:00,59.4,57.1,29.89,North,0,0.0,0.0,92,0.01,,,0.15,WUHU216HW,2013-10-08 01:31:00,
2013-10-07 21:36:00,59.2,57.3,29.89,North,0,0.0,0.0,93,0.01,,,0.15,WUHU216HW,2013-10-08 01:36:00,
2013-10-07 21:41:00,59.0,57.1,29.89,North,0,0.0,0.0,93,0.01,,,0.15,WUHU216HW,2013-10-08 01:41:00,
2013-10-07 21:46:00,58.7,56.3,29.89,North,0,0.0,0.0,92,0.01,,,0.15,WUHU216HW,2013-10-08 01:46:00,
2013-10-07 21:51:00,58.3,55.7,29.89,North,0,0.0,0.0,91,0.01,,,0.15,WUHU216HW,2013-10-08 01:51:00,
2013-10-07 21:56:00,58.0,55.4,29.88,North,0,0.0,0.0,91,0.00,,,0.15,WUHU216HW,2013-10-08 01:56:00,
2013-10-07 22:01:00,57.6,55.0,29.89,North,0,0.0,0.0,91,0.00,,,0.15,WUHU216HW,2013-10-08 02:01:00,
2013-10-07 22:06:00,57.4,54.8,29.89,North,0,0.0,0.0,91,0.00,,,0.15,WUHU216HW,2013-10-08 02:06:00,
2013-10-07 22:11:00,57.2,54.6,29.89,North,0,0.0,0.0,91,0.00,,,0.15,WUHU216HW,2013-10-08 02:11:00,
2013-10-07 22:16:00,57.2,54.6,29.90,North,0,0.0,0.0,91,0.00,,,0.15,WUHU216HW,2013-10-08 02:16:00,
2013-10-07 22:21:00,57.1,54.5,29.90,North,0,0.0,0.0,91,0.00,,,0.15,WUHU216HW,2013-10-08 02:21:00,
2013-10-07 22:26:00,56.9,54.3,29.90,North,0,0.0,0.0,91,0.00,,,0.15,WUHU216HW,2013-10-08 02:26:00,
2013-10-07 22:31:00,56.7,54.1,29.90,North,0,0.0,0.0,91,0.00,,,0.15,WUHU216HW,2013-10-08 02:31:00,
2013-10-07 22:36:00,56.5,53.9,29.90,North,0,0.0,0.0,91,0.00,,,0.15,WUHU216HW,2013-10-08 02:36:00,
2013-10-07 22:41:00,56.5,53.9,29.91,North,0,0.0,0.0,91,0.00,,,0.15,WUHU216HW,2013-10-08 02:41:00,
2013-10-07 22:46:00,56.5,53.9,29.91,North,0,0.0,0.0,91,0.00,,,0.15,WUHU216HW,2013-10-08 02:46:00,
2013-10-07 22:51:00,56.3,53.7,29.91,North,0,0.0,0.0,91,0.00,,,0.15,WUHU216HW,2013-10-08 02:51:00,
2013-10-07 22:56:00,56.3,53.7,29.91,North,0,0.0,0.0,91,0.00,,,0.15,WUHU216HW,2013-10-08 02:56:00,
2013-10-07 23:01:00,56.3,53.7,29.91,North,0,0.0,0.0,91,0.00,,,0.15,WUHU216HW,2013-10-08 03:01:00,
2013-10-07 23:02:00,56.3,53.7,29.91,North,0,0.0,0.0,91,0.00,,,0.15,WUHU216HW,2013-10-08 03:02:00,